Time;durP1;ratioP1;P1;durP2;ratioP2;P2;SDS_P1;SDS_P2;PMS_P1;PMS_P2;Temp;Humidity;BMP_temperature;BMP_pressure;BME280_temperature;BME280_humidity;BME280_pressure;Samples;Min_cycle;Max_cycle;Signal;HPM_P1;HPM_P2
2022/01/08 00:01:34;;;;;;;1.13;0.90;;;19.70;46.30;;;;;;6219521;28;20049;-68
2022/01/08 00:04:35;;;;;;;2.03;1.10;;;19.70;46.30;;;;;;6221013;28;20026;-68
2022/01/08 00:07:36;;;;;;;1.70;1.25;;;19.70;46.30;;;;;;6220586;28;20038;-68
2022/01/08 00:10:36;;;;;;;1.50;1.00;;;19.70;46.30;;;;;;6220444;28;20037;-68
2022/01/08 00:13:39;;;;;;;1.33;1.00;;;19.70;46.30;;;;;;6220092;28;20050;-68
2022/01/08 00:16:40;;;;;;;1.80;1.08;;;19.70;46.30;;;;;;6220393;28;20089;-68
2022/01/08 00:19:40;;;;;;;1.77;1.00;;;19.70;46.30;;;;;;6219499;28;20494;-69
2022/01/08 00:22:42;;;;;;;1.35;1.10;;;19.70;46.40;;;;;;6219893;28;20550;-69
2022/01/08 00:25:42;;;;;;;1.30;1.00;;;19.70;46.30;;;;;;6219789;28;20044;-68
2022/01/08 00:28:43;;;;;;;1.83;1.35;;;19.70;46.30;;;;;;6219875;28;20523;-69
2022/01/08 00:31:43;;;;;;;1.20;0.95;;;19.70;46.30;;;;;;6219972;28;20072;-69
2022/01/08 00:34:44;;;;;;;1.10;0.90;;;19.70;46.30;;;;;;6219541;28;20549;-68
2022/01/08 00:37:44;;;;;;;1.33;0.90;;;19.70;46.30;;;;;;6219393;28;20029;-69
2022/01/08 00:40:46;;;;;;;1.42;1.05;;;19.70;46.40;;;;;;6219585;28;20022;-69
2022/01/08 00:43:47;;;;;;;1.42;0.90;;;19.70;46.40;;;;;;6219616;28;20376;-69
2022/01/08 00:46:47;;;;;;;1.75;1.05;;;19.70;46.40;;;;;;6219965;28;20030;-68
2022/01/08 00:49:48;;;;;;;3.22;1.30;;;19.70;46.40;;;;;;6219370;28;20068;-69
2022/01/08 00:52:48;;;;;;;0.98;0.88;;;19.70;46.40;;;;;;6218871;28;20053;-69
2022/01/08 00:55:49;;;;;;;1.27;1.10;;;19.70;46.30;;;;;;6219496;28;20037;-68
2022/01/08 00:58:49;;;;;;;1.25;0.90;;;19.70;46.30;;;;;;6219278;28;20372;-68
2022/01/08 01:01:50;;;;;;;1.42;1.08;;;19.70;46.40;;;;;;6217852;28;20018;-68
2022/01/08 01:04:50;;;;;;;2.05;1.10;;;19.70;46.50;;;;;;6219099;28;20033;-68
2022/01/08 01:07:51;;;;;;;1.20;1.10;;;19.70;46.40;;;;;;6217562;28;20386;-68
2022/01/08 01:10:51;;;;;;;1.17;0.90;;;19.70;46.50;;;;;;6218993;28;20479;-69
2022/01/08 01:13:52;;;;;;;1.08;0.90;;;19.70;46.40;;;;;;6217509;28;20133;-69
2022/01/08 01:16:53;;;;;;;2.25;0.95;;;19.70;46.40;;;;;;6217617;28;20041;-68
2022/01/08 01:19:54;;;;;;;1.40;1.00;;;19.70;46.40;;;;;;6218754;28;20022;-69
2022/01/08 01:23:05;;;;;;;1.00;0.90;;;19.70;46.50;;;;;;6218468;28;20049;-68
2022/01/08 01:26:10;;;;;;;1.02;0.90;;;19.70;46.30;;;;;;6194869;28;20534;-68
2022/01/08 01:49:07;;;;;;;0.93;0.80;;;19.60;46.50;;;;;;6218269;28;20477;-69
2022/01/08 01:52:11;;;;;;;1.10;0.88;;;19.70;46.50;;;;;;6211612;28;20036;-69
2022/01/08 01:55:11;;;;;;;1.13;0.85;;;19.70;46.50;;;;;;6207708;28;20022;-69
2022/01/08 01:58:12;;;;;;;1.08;0.85;;;19.70;46.60;;;;;;6218291;28;20424;-69
2022/01/08 02:01:13;;;;;;;1.13;1.00;;;19.60;46.50;;;;;;6222306;28;20025;-69
2022/01/08 02:04:14;;;;;;;0.90;0.70;;;19.70;46.60;;;;;;6236894;28;20053;-68
2022/01/08 02:07:14;;;;;;;0.95;0.80;;;19.70;46.60;;;;;;6218289;28;20392;-70
2022/01/08 02:10:15;;;;;;;1.08;0.98;;;19.60;46.50;;;;;;6218374;28;20034;-69
2022/01/08 02:13:23;;;;;;;1.42;0.95;;;19.70;46.60;;;;;;6218256;28;20410;-70
2022/01/08 02:16:23;;;;;;;1.00;0.90;;;19.60;46.50;;;;;;6218204;28;20033;-68
2022/01/08 02:19:25;;;;;;;1.08;0.90;;;19.60;46.50;;;;;;6217955;28;20533;-68
2022/01/08 02:22:25;;;;;;;1.20;0.90;;;19.60;46.50;;;;;;6218095;28;20487;-68
2022/01/08 02:25:26;;;;;;;1.80;1.00;;;19.60;46.50;;;;;;6218374;28;20061;-69
2022/01/08 02:28:26;;;;;;;1.10;0.93;;;19.60;46.50;;;;;;6218302;28;20042;-69
2022/01/08 02:31:27;;;;;;;1.33;0.90;;;19.70;46.70;;;;;;6217757;28;20037;-68
2022/01/08 02:34:28;;;;;;;1.98;1.20;;;19.60;46.60;;;;;;6219059;28;20029;-68
2022/01/08 02:37:30;;;;;;;1.15;0.80;;;19.60;46.50;;;;;;6222566;28;20181;-68
2022/01/08 02:40:31;;;;;;;1.90;1.13;;;19.60;46.60;;;;;;6222567;28;20028;-69
2022/01/08 02:43:39;;;;;;;0.80;0.80;;;19.60;46.60;;;;;;6222503;28;20468;-68
2022/01/08 02:46:41;;;;;;;1.00;0.82;;;19.60;46.60;;;;;;6222591;28;20021;-68
2022/01/08 02:49:42;;;;;;;0.80;0.80;;;19.60;46.60;;;;;;6222264;28;20049;-68
2022/01/08 02:52:47;;;;;;;0.80;0.80;;;19.60;46.60;;;;;;6222711;28;20524;-68
2022/01/08 02:55:49;;;;;;;1.30;0.90;;;19.70;46.70;;;;;;6220787;28;20022;-68
2022/01/08 02:58:50;;;;;;;0.80;0.80;;;19.60;46.60;;;;;;6222076;28;20030;-69
2022/01/08 03:01:50;;;;;;;1.00;0.90;;;19.60;46.60;;;;;;6221954;28;20526;-69
2022/01/08 03:04:52;;;;;;;0.95;0.82;;;19.60;46.60;;;;;;6221914;28;20025;-68
2022/01/08 03:07:53;;;;;;;1.10;1.00;;;19.60;46.60;;;;;;6221991;28;20507;-69
2022/01/08 03:10:54;;;;;;;0.98;0.70;;;19.60;46.60;;;;;;6221974;28;20021;-69
2022/01/08 03:13:54;;;;;;;1.00;0.70;;;19.60;46.60;;;;;;6221900;28;20174;-68
2022/01/08 03:16:55;;;;;;;1.52;0.85;;;19.60;46.60;;;;;;6212236;28;20419;-69
2022/01/08 03:20:02;;;;;;;0.90;0.80;;;19.60;46.60;;;;;;6198532;28;20046;-68
2022/01/08 03:23:05;;;;;;;1.13;0.77;;;19.60;46.70;;;;;;6221589;28;20390;-69
2022/01/08 03:26:06;;;;;;;1.63;1.17;;;19.60;46.60;;;;;;6221892;28;20105;-69
2022/01/08 03:29:07;;;;;;;1.00;0.90;;;19.60;46.70;;;;;;6220916;28;20034;-68
2022/01/08 03:32:08;;;;;;;0.77;0.60;;;19.60;46.70;;;;;;6221314;28;20438;-69
2022/01/08 03:35:09;;;;;;;0.75;0.60;;;19.60;46.70;;;;;;6221544;28;20026;-69
2022/01/08 03:38:09;;;;;;;1.02;0.80;;;19.60;46.70;;;;;;6197115;28;20022;-68
2022/01/08 03:41:10;;;;;;;1.08;0.90;;;19.60;46.70;;;;;;6202895;28;20026;-69
2022/01/08 03:44:11;;;;;;;0.82;0.80;;;19.60;46.70;;;;;;6219953;28;20546;-68
2022/01/08 03:47:28;;;;;;;0.73;0.70;;;19.60;46.80;;;;;;6211223;28;20038;-68
2022/01/08 03:50:29;;;;;;;0.82;0.82;;;19.60;46.70;;;;;;6197187;28;20026;-69
2022/01/08 03:53:29;;;;;;;0.82;0.75;;;19.60;46.80;;;;;;6220974;28;20262;-69
2022/01/08 03:56:30;;;;;;;0.63;0.60;;;19.60;46.80;;;;;;6221005;28;20069;-69
2022/01/08 04:03:27;;;;;;;;;;;19.60;46.70;;;;;;6221456;28;20034;-68
2022/01/08 04:06:28;;;;;;;0.98;0.88;;;19.60;46.70;;;;;;6220385;28;19986;-69
2022/01/08 04:09:28;;;;;;;0.82;0.70;;;19.60;46.80;;;;;;6220628;28;20045;-69
2022/01/08 04:12:45;;;;;;;0.70;0.63;;;19.60;46.80;;;;;;6220158;28;20064;-68
2022/01/08 04:15:47;;;;;;;1.13;0.75;;;19.60;46.80;;;;;;6220488;28;20065;-68
2022/01/08 04:18:48;;;;;;;1.05;0.90;;;19.60;46.80;;;;;;6220341;28;20387;-68
2022/01/08 04:21:59;;;;;;;0.80;0.80;;;19.60;46.80;;;;;;6220033;28;20032;-68
2022/01/08 04:24:59;;;;;;;1.52;0.90;;;19.60;46.80;;;;;;6220654;28;20018;-69
2022/01/08 04:28:00;;;;;;;1.40;0.70;;;19.60;46.80;;;;;;6219950;28;20092;-69
2022/01/08 04:31:00;;;;;;;0.73;0.70;;;19.60;46.80;;;;;;6210862;28;20054;-68
2022/01/08 04:34:01;;;;;;;0.95;0.70;;;19.60;46.80;;;;;;6219715;28;20096;-68
2022/01/08 04:37:01;;;;;;;1.20;0.90;;;19.50;46.70;;;;;;6219919;28;20104;-68
2022/01/08 04:40:03;;;;;;;0.80;0.80;;;19.60;46.80;;;;;;6219765;28;20406;-68
2022/01/08 04:43:04;;;;;;;0.60;0.60;;;19.60;46.80;;;;;;6219827;28;20072;-69
2022/01/08 04:46:05;;;;;;;0.75;0.70;;;19.60;46.80;;;;;;6220381;28;20061;-69
2022/01/08 04:49:05;;;;;;;0.85;0.70;;;19.60;46.80;;;;;;6219562;28;20079;-68
2022/01/08 04:52:06;;;;;;;1.20;0.80;;;19.60;46.80;;;;;;6218744;28;20045;-68
2022/01/08 04:55:07;;;;;;;0.70;0.60;;;19.50;46.80;;;;;;6218385;28;20044;-69
2022/01/08 04:58:08;;;;;;;1.30;0.70;;;19.50;46.80;;;;;;6218788;28;20038;-68
2022/01/08 05:01:17;;;;;;;0.98;0.70;;;19.50;46.80;;;;;;6219537;28;20025;-68
2022/01/08 05:04:17;;;;;;;0.88;0.70;;;19.50;46.80;;;;;;6219631;28;20060;-69
2022/01/08 05:07:18;;;;;;;0.73;0.73;;;19.60;46.90;;;;;;6219158;28;20026;-69
2022/01/08 05:10:19;;;;;;;0.65;0.65;;;19.60;46.90;;;;;;6219344;28;20030;-68
2022/01/08 05:13:19;;;;;;;0.80;0.70;;;19.50;46.80;;;;;;6218847;28;20026;-69
2022/01/08 05:16:21;;;;;;;0.75;0.75;;;19.60;46.80;;;;;;6219365;28;20030;-68
2022/01/08 05:19:35;;;;;;;0.70;0.70;;;19.60;46.80;;;;;;6219189;28;20168;-69
2022/01/08 05:25:49;;;;;;;1.00;0.80;;;19.60;46.90;;;;;;6219226;28;20030;-68
2022/01/08 05:28:49;;;;;;;1.13;0.80;;;19.60;46.80;;;;;;6218777;28;20395;-68
2022/01/08 05:31:50;;;;;;;0.80;0.70;;;19.60;46.80;;;;;;6209513;28;20037;-69
2022/01/08 05:34:51;;;;;;;1.27;0.60;;;19.60;46.80;;;;;;6232717;28;20034;-69
2022/01/08 05:37:53;;;;;;;0.50;0.50;;;19.60;46.80;;;;;;6219177;28;20480;-69
2022/01/08 05:40:53;;;;;;;0.82;0.50;;;19.60;46.80;;;;;;6219333;28;20092;-68
2022/01/08 05:43:54;;;;;;;0.88;0.70;;;19.60;46.80;;;;;;6219086;28;20483;-68
2022/01/08 05:46:54;;;;;;;0.60;0.60;;;19.60;46.80;;;;;;6219050;28;20037;-69
2022/01/08 05:49:56;;;;;;;0.80;0.80;;;19.60;46.80;;;;;;6219040;28;20065;-66
2022/01/08 05:52:57;;;;;;;3.80;0.70;;;19.60;46.80;;;;;;6211785;28;20118;-68
2022/01/08 05:55:57;;;;;;;2.05;0.95;;;19.60;46.80;;;;;;6219947;28;20030;-66
2022/01/08 05:58:58;;;;;;;1.00;0.70;;;19.60;46.80;;;;;;6217019;28;20053;-68
2022/01/08 06:01:59;;;;;;;2.00;1.00;;;19.60;46.80;;;;;;6208878;28;20023;-68
2022/01/08 06:04:59;;;;;;;1.42;0.88;;;19.60;46.80;;;;;;6218958;28;20483;-67
2022/01/08 06:08:00;;;;;;;1.88;1.00;;;19.60;46.80;;;;;;6219670;28;20654;-66
2022/01/08 06:11:00;;;;;;;2.95;1.02;;;19.60;46.80;;;;;;6224728;28;20583;-68
2022/01/08 06:14:02;;;;;;;2.28;1.10;;;19.60;46.80;;;;;;6223321;28;20092;-67
2022/01/08 06:17:03;;;;;;;2.28;1.40;;;19.60;46.80;;;;;;6223177;28;20057;-67
2022/01/08 06:20:05;;;;;;;3.25;1.27;;;19.60;46.80;;;;;;6223236;28;20203;-68
2022/01/08 06:23:05;;;;;;;3.40;1.38;;;19.60;46.80;;;;;;6223622;28;20492;-68
2022/01/08 06:26:06;;;;;;;2.92;1.30;;;19.60;46.80;;;;;;6222117;28;20114;-68
2022/01/08 06:29:07;;;;;;;4.63;1.55;;;19.70;46.90;;;;;;6222672;28;20798;-68
2022/01/08 06:32:08;;;;;;;3.97;1.85;;;19.60;46.80;;;;;;6223206;28;20028;-68
2022/01/08 06:35:08;;;;;;;4.47;1.77;;;19.70;46.90;;;;;;6222497;28;20029;-68
2022/01/08 06:38:09;;;;;;;6.47;2.20;;;19.70;46.90;;;;;;6222759;28;20018;-68
2022/01/08 06:41:10;;;;;;;8.80;2.33;;;19.60;46.90;;;;;;6222694;28;20076;-69
2022/01/08 06:44:11;;;;;;;5.65;2.22;;;19.70;46.90;;;;;;6222762;28;20319;-68
2022/01/08 06:47:11;;;;;;;7.22;2.30;;;19.70;46.90;;;;;;6222221;28;20106;-69
2022/01/08 06:50:12;;;;;;;5.28;2.35;;;19.70;46.90;;;;;;6213410;28;20022;-69
2022/01/08 06:53:13;;;;;;;5.72;2.25;;;19.70;46.90;;;;;;6198132;28;20109;-68
2022/01/08 06:56:13;;;;;;;7.72;2.67;;;19.70;46.90;;;;;;6220361;28;20076;-68
2022/01/08 06:59:14;;;;;;;7.25;2.60;;;19.70;46.90;;;;;;6220648;28;20018;-68
2022/01/08 07:02:14;;;;;;;8.10;2.20;;;19.70;47.00;;;;;;6220930;28;20099;-69
2022/01/08 07:05:15;;;;;;;7.30;2.50;;;19.70;46.90;;;;;;6220903;28;20088;-69
2022/01/08 07:08:16;;;;;;;7.50;2.85;;;19.70;46.90;;;;;;6222359;28;20364;-69
2022/01/08 07:11:16;;;;;;;5.97;2.55;;;19.70;46.90;;;;;;6221822;28;20030;-69
2022/01/08 07:14:17;;;;;;;9.10;2.67;;;19.70;46.90;;;;;;6221895;28;20038;-68
2022/01/08 07:17:17;;;;;;;4.53;2.10;;;19.70;46.80;;;;;;6221893;28;20029;-69
2022/01/08 07:20:18;;;;;;;5.20;2.15;;;19.70;46.90;;;;;;6219527;28;20030;-68
2022/01/08 07:23:19;;;;;;;6.10;2.08;;;19.70;46.80;;;;;;6221607;28;20030;-68
2022/01/08 07:26:20;;;;;;;11.30;3.25;;;19.70;46.80;;;;;;6221545;28;20038;-68
2022/01/08 07:29:21;;;;;;;8.10;2.58;;;19.70;46.80;;;;;;6221243;28;20065;-68
2022/01/08 07:32:21;;;;;;;10.02;3.10;;;19.70;47.00;;;;;;6221364;28;20403;-68
2022/01/08 07:35:23;;;;;;;7.28;2.58;;;19.70;47.40;;;;;;6221139;28;20030;-68
2022/01/08 07:38:23;;;;;;;12.48;3.10;;;19.70;47.60;;;;;;6221597;28;20037;-68
2022/01/08 07:41:24;;;;;;;8.40;2.67;;;19.70;47.90;;;;;;6221265;28;20152;-69
2022/01/08 07:44:25;;;;;;;6.63;2.90;;;19.70;47.90;;;;;;6210997;28;20153;-71
2022/01/08 07:47:25;;;;;;;6.55;2.50;;;19.70;47.80;;;;;;6212794;28;20030;-70
2022/01/08 07:50:26;;;;;;;7.07;2.55;;;19.70;47.80;;;;;;6215551;28;20036;-69
2022/01/08 07:53:27;;;;;;;10.35;2.70;;;19.70;47.80;;;;;;6219095;28;20029;-70
2022/01/08 07:56:27;;;;;;;5.60;2.28;;;19.70;48.00;;;;;;6231587;28;20144;-72
2022/01/08 07:59:28;;;;;;;8.02;2.50;;;19.70;48.10;;;;;;6220167;28;20420;-70
2022/01/08 08:02:28;;;;;;;8.40;2.38;;;19.70;48.10;;;;;;6226757;28;20022;-70
2022/01/08 08:05:31;;;;;;;4.90;2.17;;;19.70;48.20;;;;;;6217923;28;20118;-70
2022/01/08 08:08:32;;;;;;;9.13;2.40;;;19.70;48.10;;;;;;6219499;28;20042;-71
2022/01/08 08:11:32;;;;;;;5.53;2.10;;;19.70;48.10;;;;;;6219650;28;20045;-70
2022/01/08 08:14:33;;;;;;;4.95;1.92;;;19.70;48.10;;;;;;6218182;28;20088;-72
2022/01/08 08:17:34;;;;;;;5.20;2.08;;;19.70;48.10;;;;;;6218968;28;20499;-71
2022/01/08 08:20:35;;;;;;;4.70;2.10;;;19.70;48.00;;;;;;6218483;28;20475;-71
2022/01/08 08:23:35;;;;;;;5.82;2.25;;;19.70;48.10;;;;;;6219117;28;20026;-70
2022/01/08 08:26:36;;;;;;;4.80;1.73;;;19.70;48.00;;;;;;6226656;28;20026;-70
2022/01/08 08:29:38;;;;;;;5.38;1.88;;;19.70;48.00;;;;;;6236455;28;20033;-70
2022/01/08 08:32:39;;;;;;;4.57;2.03;;;19.70;48.00;;;;;;6215056;28;20390;-69
2022/01/08 08:35:40;;;;;;;5.53;1.88;;;19.70;48.00;;;;;;6215248;28;20068;-70
2022/01/08 08:38:40;;;;;;;3.95;1.95;;;19.70;48.00;;;;;;6213864;28;20053;-70
2022/01/08 08:41:41;;;;;;;4.00;1.88;;;19.70;48.00;;;;;;6211608;28;20022;-70
2022/01/08 08:44:42;;;;;;;3.83;1.80;;;19.70;48.10;;;;;;6218462;28;20026;-70
2022/01/08 08:47:42;;;;;;;5.00;2.10;;;19.70;48.00;;;;;;6218221;28;20079;-71
2022/01/08 08:50:44;;;;;;;4.20;1.88;;;19.70;48.00;;;;;;6211354;28;20018;-70
2022/01/08 08:53:45;;;;;;;4.13;1.85;;;19.70;48.70;;;;;;6218719;28;20124;-70
2022/01/08 08:56:45;;;;;;;3.17;1.70;;;19.70;48.00;;;;;;6218173;28;20026;-70
2022/01/08 08:59:46;;;;;;;5.38;1.75;;;19.70;48.40;;;;;;6206450;28;20027;-72
2022/01/08 09:02:47;;;;;;;4.63;2.05;;;19.70;48.00;;;;;;6200692;28;20058;-70
2022/01/08 09:05:48;;;;;;;5.00;1.80;;;19.70;48.00;;;;;;6196728;28;20117;-71
2022/01/08 09:08:49;;;;;;;4.88;1.90;;;19.70;48.00;;;;;;6223730;28;20434;-70
2022/01/08 09:11:50;;;;;;;3.63;1.75;;;19.70;48.00;;;;;;6214704;28;20022;-70
2022/01/08 09:14:50;;;;;;;2.97;1.55;;;19.70;48.00;;;;;;6217802;28;20100;-70
2022/01/08 09:17:53;;;;;;;3.78;1.52;;;19.70;47.90;;;;;;6217720;28;20054;-71
2022/01/08 09:20:54;;;;;;;2.45;1.30;;;19.70;47.80;;;;;;6194015;28;20261;-70
2022/01/08 09:23:55;;;;;;;1.92;1.20;;;19.70;47.80;;;;;;6217479;28;20494;-71
2022/01/08 09:26:56;;;;;;;6.07;1.50;;;19.70;47.80;;;;;;6217729;28;20534;-71
2022/01/08 09:29:56;;;;;;;3.50;1.50;;;19.80;47.80;;;;;;6207704;28;20030;-70
2022/01/08 09:32:57;;;;;;;2.15;1.20;;;19.80;47.80;;;;;;6217808;28;20053;-70
2022/01/08 09:35:59;;;;;;;3.05;1.60;;;19.80;47.80;;;;;;6231260;28;20375;-70
2022/01/08 09:39:00;;;;;;;2.10;1.40;;;19.80;47.80;;;;;;6217527;28;20029;-71
2022/01/08 09:42:03;;;;;;;3.17;1.33;;;19.80;47.70;;;;;;6207737;28;20045;-70
2022/01/08 09:45:04;;;;;;;2.75;1.60;;;19.80;47.70;;;;;;6215167;28;20076;-69
2022/01/08 09:48:05;;;;;;;2.45;1.42;;;19.80;47.80;;;;;;6225995;28;20030;-73
2022/01/08 09:51:05;;;;;;;3.92;1.27;;;19.80;47.80;;;;;;6221484;28;20033;-70
2022/01/08 09:54:06;;;;;;;3.05;1.35;;;19.80;47.80;;;;;;6200048;28;20044;-70
2022/01/08 09:57:06;;;;;;;4.28;1.60;;;19.80;47.80;;;;;;6218364;28;20042;-70
2022/01/08 10:00:12;;;;;;;2.92;1.55;;;19.80;47.70;;;;;;6221966;28;20033;-70
2022/01/08 10:03:14;;;;;;;2.60;1.35;;;19.80;47.80;;;;;;6221158;28;20102;-71
2022/01/08 10:06:24;;;;;;;2.30;1.45;;;19.80;47.80;;;;;;6244907;28;20030;-72
2022/01/08 10:09:24;;;;;;;2.25;1.20;;;19.80;47.80;;;;;;6212530;28;20364;-70
2022/01/08 10:12:46;;;;;;;2.92;1.40;;;19.80;47.80;;;;;;6220880;28;20033;-70
2022/01/08 10:19:23;;;;;;;2.33;1.38;;;19.80;47.70;;;;;;6207162;28;20026;-71
2022/01/08 10:22:24;;;;;;;2.47;1.38;;;19.80;47.70;;;;;;6241369;28;20037;-70
2022/01/08 10:25:24;;;;;;;2.50;1.20;;;19.80;47.80;;;;;;6242471;28;20097;-70
2022/01/08 10:28:41;;;;;;;2.33;1.20;;;19.80;47.70;;;;;;6225824;28;20575;-71
2022/01/08 10:31:50;;;;;;;3.50;1.50;;;19.80;47.80;;;;;;6242196;28;20033;-70
2022/01/08 10:34:51;;;;;;;3.03;1.15;;;19.80;47.80;;;;;;6243342;28;20093;-70
2022/01/08 10:37:52;;;;;;;1.63;1.00;;;19.80;47.80;;;;;;6241929;28;20095;-70
2022/01/08 10:40:53;;;;;;;2.45;1.20;;;19.80;47.80;;;;;;6242262;28;20112;-70
2022/01/08 10:44:13;;;;;;;2.03;1.05;;;19.80;47.80;;;;;;6242895;28;20031;-71
2022/01/08 10:47:19;;;;;;;2.00;1.02;;;19.80;47.80;;;;;;6242813;28;20034;-70
2022/01/08 10:50:23;;;;;;;1.98;1.10;;;19.80;47.80;;;;;;6240438;28;20049;-70
2022/01/08 10:54:04;;;;;;;2.20;1.30;;;19.80;47.80;;;;;;6227407;28;20037;-70
2022/01/08 10:57:07;;;;;;;1.75;1.17;;;19.80;47.80;;;;;;6198915;28;20030;-71
2022/01/08 11:00:13;;;;;;;2.92;1.20;;;19.80;47.80;;;;;;6221079;28;20403;-70
2022/01/08 11:03:39;;;;;;;2.13;1.10;;;19.80;47.80;;;;;;6219832;28;20026;-70
2022/01/08 11:06:52;;;;;;;1.77;0.93;;;19.80;47.80;;;;;;6221012;28;20042;-70
2022/01/08 11:09:55;;;;;;;1.95;1.13;;;19.80;47.80;;;;;;6218156;28;20526;-70
2022/01/08 11:12:55;;;;;;;1.98;1.10;;;19.80;48.50;;;;;;6205212;28;20018;-71
2022/01/08 11:15:56;;;;;;;1.75;1.15;;;19.80;47.80;;;;;;6205268;28;20034;-71
2022/01/08 11:18:58;;;;;;;1.65;1.10;;;19.80;47.80;;;;;;6207256;28;20100;-70
2022/01/08 11:22:00;;;;;;;1.33;0.80;;;19.80;47.80;;;;;;6216788;28;20388;-70
2022/01/08 11:25:06;;;;;;;1.10;0.90;;;19.80;47.80;;;;;;6218889;28;20495;-70
2022/01/08 11:28:15;;;;;;;1.65;0.90;;;19.80;47.80;;;;;;6219327;28;20025;-70
2022/01/08 11:31:17;;;;;;;2.30;1.05;;;19.80;47.80;;;;;;6218803;28;20029;-72
2022/01/08 11:34:19;;;;;;;1.27;0.95;;;19.80;47.80;;;;;;6219727;28;20034;-71
2022/01/08 11:37:23;;;;;;;1.80;0.90;;;19.80;47.80;;;;;;6220337;28;20379;-71
2022/01/08 11:40:26;;;;;;;2.05;1.20;;;19.80;47.80;;;;;;6212071;28;20033;-69
2022/01/08 11:43:29;;;;;;;1.67;1.27;;;19.80;47.80;;;;;;6215216;28;20109;-70
2022/01/08 11:46:34;;;;;;;1.10;0.88;;;19.80;47.80;;;;;;6218799;28;20025;-70
2022/01/08 11:49:35;;;;;;;2.17;1.20;;;19.80;47.80;;;;;;6219621;28;20022;-70
2022/01/08 11:52:35;;;;;;;2.13;0.90;;;19.80;47.80;;;;;;6215927;28;20033;-72
2022/01/08 11:55:36;;;;;;;2.50;1.20;;;19.80;47.80;;;;;;6219385;28;20057;-71
2022/01/08 11:58:38;;;;;;;2.25;1.13;;;19.80;47.80;;;;;;6219843;28;20033;-70
2022/01/08 12:01:43;;;;;;;1.98;1.00;;;19.80;47.80;;;;;;6219515;28;20025;-71
2022/01/08 12:04:51;;;;;;;2.47;1.00;;;19.80;47.80;;;;;;6219555;28;20060;-70
2022/01/08 12:08:08;;;;;;;1.55;0.95;;;19.80;47.80;;;;;;6218968;28;20029;-71
2022/01/08 12:11:10;;;;;;;1.10;0.90;;;19.80;47.80;;;;;;6219056;28;20503;-71
2022/01/08 12:14:12;;;;;;;1.45;0.90;;;19.80;47.80;;;;;;6219475;28;20474;-70
2022/01/08 12:17:18;;;;;;;2.17;1.00;;;19.80;47.80;;;;;;6209935;28;20034;-70
2022/01/08 12:20:42;;;;;;;1.98;1.00;;;19.80;47.80;;;;;;6211224;28;20014;-70
2022/01/08 12:23:44;;;;;;;1.98;1.13;;;19.80;47.80;;;;;;6217429;28;20033;-69
2022/01/08 12:26:45;;;;;;;1.63;1.05;;;19.80;47.90;;;;;;6218946;28;20054;-70
2022/01/08 12:29:46;;;;;;;1.13;1.00;;;19.80;47.80;;;;;;6216687;28;20048;-70
2022/01/08 12:32:50;;;;;;;1.25;1.00;;;19.80;47.80;;;;;;6219433;28;20556;-70
2022/01/08 12:35:57;;;;;;;2.10;1.30;;;19.80;47.80;;;;;;6219688;28;20029;-71
2022/01/08 12:39:04;;;;;;;2.22;1.15;;;19.80;47.90;;;;;;6217459;28;20467;-71
2022/01/08 12:42:31;;;;;;;1.88;1.35;;;19.80;47.80;;;;;;6217242;28;20026;-70
2022/01/08 12:45:34;;;;;;;1.20;1.00;;;19.80;47.80;;;;;;6217316;28;20057;-70
2022/01/08 12:48:34;;;;;;;2.13;1.20;;;19.80;47.80;;;;;;6217322;28;20022;-70
2022/01/08 12:51:55;;;;;;;1.95;1.30;;;19.80;47.80;;;;;;6216725;28;20022;-69
2022/01/08 12:54:55;;;;;;;1.90;1.38;;;19.80;47.90;;;;;;6211813;28;20014;-70
2022/01/08 12:57:56;;;;;;;2.40;1.35;;;19.80;47.90;;;;;;6218327;28;20060;-70
2022/01/08 13:01:09;;;;;;;1.48;1.13;;;19.80;47.90;;;;;;6218679;28;20498;-70
2022/01/08 13:04:16;;;;;;;6.05;1.42;;;19.80;47.90;;;;;;6209491;28;20372;-71
2022/01/08 13:07:20;;;;;;;4.00;1.40;;;19.80;47.90;;;;;;6218660;28;20121;-70
2022/01/08 13:10:21;;;;;;;2.25;1.60;;;19.80;47.90;;;;;;6216406;28;20057;-70
2022/01/08 13:13:21;;;;;;;1.80;1.30;;;19.80;48.00;;;;;;6218436;28;20044;-71
2022/01/08 13:16:37;;;;;;;2.25;1.50;;;19.80;47.90;;;;;;6218015;28;20112;-70
2022/01/08 13:19:38;;;;;;;2.00;1.58;;;19.80;47.90;;;;;;6216838;28;20068;-70
2022/01/08 13:22:39;;;;;;;3.08;1.70;;;19.80;47.90;;;;;;6206967;28;20378;-71
2022/01/08 13:25:40;;;;;;;3.10;1.67;;;19.80;47.90;;;;;;6208409;28;20081;-71
2022/01/08 13:28:48;;;;;;;2.78;1.40;;;19.80;48.00;;;;;;6192451;28;20476;-70
2022/01/08 13:31:52;;;;;;;2.45;1.50;;;19.80;47.90;;;;;;6216022;28;20034;-70
2022/01/08 13:34:59;;;;;;;2.50;1.67;;;19.80;47.90;;;;;;6218255;28;20025;-69
2022/01/08 13:38:00;;;;;;;5.63;1.42;;;19.80;47.90;;;;;;6216082;28;20029;-69
2022/01/08 13:41:12;;;;;;;2.50;1.40;;;19.80;48.00;;;;;;6210766;28;20027;-71
2022/01/08 13:44:13;;;;;;;2.85;1.52;;;19.80;47.90;;;;;;6208523;28;20022;-71
2022/01/08 13:47:18;;;;;;;3.13;1.60;;;19.80;48.00;;;;;;6217537;28;20399;-71
2022/01/08 13:50:22;;;;;;;;;;;19.80;48.00;;;;;;6218276;28;20407;-70
2022/01/08 13:53:23;;;;;;;3.03;2.05;;;19.80;48.00;;;;;;6209335;28;19905;-69
2022/01/08 13:56:25;;;;;;;2.90;1.55;;;19.80;48.00;;;;;;6207826;28;20037;-70
2022/01/08 13:59:33;;;;;;;2.92;1.85;;;19.80;48.00;;;;;;6217445;28;20484;-71
2022/01/08 14:02:34;;;;;;;2.58;1.90;;;19.80;48.00;;;;;;6216805;28;20029;-70
2022/01/08 14:05:35;;;;;;;2.38;1.70;;;19.80;48.00;;;;;;6218510;28;20374;-70
2022/01/08 14:08:36;;;;;;;3.28;1.98;;;19.80;48.00;;;;;;6229651;28;20111;-71
2022/01/08 14:11:37;;;;;;;2.92;1.98;;;19.80;48.00;;;;;;6242384;28;20029;-70
2022/01/08 14:14:50;;;;;;;2.45;1.70;;;19.80;48.00;;;;;;6193997;28;20371;-73
2022/01/08 14:17:51;;;;;;;2.45;2.00;;;19.80;48.00;;;;;;6212572;28;20091;-70
2022/01/08 14:20:55;;;;;;;3.13;2.05;;;19.80;48.00;;;;;;6214572;28;20407;-70
2022/01/08 14:23:55;;;;;;;2.10;1.80;;;19.80;48.00;;;;;;6216940;28;20420;-74
2022/01/08 14:27:03;;;;;;;2.85;1.70;;;19.80;48.00;;;;;;6216313;28;20029;-70
2022/01/08 14:30:04;;;;;;;2.42;1.77;;;19.80;48.00;;;;;;6217534;28;20026;-70
2022/01/08 14:33:05;;;;;;;5.93;2.00;;;19.80;48.00;;;;;;6221088;28;20032;-71
2022/01/08 14:36:05;;;;;;;2.80;1.80;;;19.80;48.00;;;;;;6220843;28;20034;-71
2022/01/08 14:39:06;;;;;;;3.45;2.15;;;19.80;48.00;;;;;;6220927;28;20034;-70
2022/01/08 14:42:10;;;;;;;3.28;2.05;;;19.80;48.00;;;;;;6222145;28;20372;-70
2022/01/08 14:45:18;;;;;;;3.30;2.10;;;19.80;48.00;;;;;;6220838;28;20517;-71
2022/01/08 14:48:26;;;;;;;2.33;1.60;;;19.80;48.00;;;;;;6220986;28;20022;-71
2022/01/08 14:51:30;;;;;;;3.08;1.90;;;19.80;48.00;;;;;;6220211;28;20022;-70
2022/01/08 14:54:34;;;;;;;2.80;1.70;;;19.80;47.90;;;;;;6221686;28;20725;-70
2022/01/08 14:57:35;;;;;;;2.17;1.63;;;19.80;47.90;;;;;;6211517;28;20022;-71
2022/01/08 15:00:36;;;;;;;3.53;2.13;;;19.80;47.90;;;;;;6196933;28;20440;-70
2022/01/08 15:03:36;;;;;;;3.20;2.08;;;19.80;47.90;;;;;;6197471;28;20681;-71
2022/01/08 15:06:37;;;;;;;2.50;1.80;;;19.80;47.90;;;;;;6197764;28;20034;-71
2022/01/08 15:09:38;;;;;;;2.45;1.92;;;19.80;47.90;;;;;;6210851;28;20022;-71
2022/01/08 15:12:38;;;;;;;3.60;1.70;;;19.80;47.80;;;;;;6237480;28;20176;-71
2022/01/08 15:15:40;;;;;;;2.80;1.88;;;19.80;47.80;;;;;;6220826;28;20053;-70
2022/01/08 15:18:40;;;;;;;3.05;1.90;;;19.80;47.80;;;;;;6237008;28;20018;-69
2022/01/08 15:21:41;;;;;;;3.78;2.10;;;19.80;47.80;;;;;;6216508;28;20075;-70
2022/01/08 15:24:41;;;;;;;3.28;2.05;;;19.80;47.80;;;;;;6221041;28;20022;-70
2022/01/08 15:27:42;;;;;;;2.53;1.80;;;19.80;47.80;;;;;;6221635;28;20014;-71
2022/01/08 15:30:43;;;;;;;2.25;1.85;;;19.80;47.80;;;;;;6221139;28;20112;-68
2022/01/08 15:33:43;;;;;;;3.28;2.10;;;19.80;47.80;;;;;;6220470;28;20043;-70
2022/01/08 15:36:44;;;;;;;2.95;2.00;;;19.80;47.80;;;;;;6221442;28;20103;-68
2022/01/08 15:39:45;;;;;;;3.20;2.30;;;19.80;47.80;;;;;;6218914;28;20026;-69
2022/01/08 15:42:47;;;;;;;3.03;2.10;;;19.80;47.80;;;;;;6218745;28;20021;-70
2022/01/08 15:45:47;;;;;;;2.97;1.92;;;19.80;47.80;;;;;;6220838;28;20026;-67
2022/01/08 15:48:48;;;;;;;2.75;2.15;;;19.80;47.80;;;;;;6244338;28;20112;-68
2022/01/08 15:51:50;;;;;;;2.10;1.73;;;19.80;47.80;;;;;;6240682;28;20104;-68
2022/01/08 15:54:50;;;;;;;3.63;2.05;;;19.80;47.80;;;;;;6220514;28;20093;-70
2022/01/08 15:57:51;;;;;;;3.10;2.17;;;19.80;47.80;;;;;;6220021;28;20548;-69
2022/01/08 16:00:51;;;;;;;2.85;2.13;;;19.80;47.80;;;;;;6217642;28;20116;-68
2022/01/08 16:03:52;;;;;;;5.53;2.22;;;19.80;47.90;;;;;;6219382;28;20022;-68
2022/01/08 16:06:53;;;;;;;6.93;2.88;;;19.80;45.80;;;;;;6212738;28;20510;-68
2022/01/08 16:09:54;;;;;;;4.32;2.47;;;19.80;45.10;;;;;;6217402;28;20116;-68
2022/01/08 16:12:54;;;;;;;4.00;2.55;;;19.80;45.60;;;;;;6211032;28;20434;-68
2022/01/08 16:15:55;;;;;;;3.92;2.10;;;19.80;46.00;;;;;;6219608;28;20071;-67
2022/01/08 16:18:56;;;;;;;4.43;2.17;;;19.80;46.40;;;;;;6218677;28;20029;-68
2022/01/08 16:21:56;;;;;;;5.80;2.13;;;19.80;47.20;;;;;;6218702;28;20037;-68